createdAt,value
2019-02-21T00:00:37.446Z,16.53
2019-02-21T00:03:05.622Z,15.20
2019-02-21T00:05:33.688Z,15.63
2019-02-21T00:08:01.781Z,13.67
2019-02-21T00:10:29.865Z,13.13
2019-02-21T00:12:57.960Z,14.40
2019-02-21T00:15:26.042Z,15.23
2019-02-21T00:17:54.136Z,13.70
2019-02-21T00:20:22.217Z,15.13
2019-02-21T00:22:50.290Z,16.20
2019-02-21T00:25:18.429Z,14.37
2019-02-21T00:27:46.529Z,13.23
2019-02-21T00:30:14.628Z,12.97
2019-02-21T00:32:42.698Z,13.03
2019-02-21T00:35:10.819Z,13.30
2019-02-21T00:37:38.899Z,14.97
2019-02-21T00:40:07.576Z,16.53
2019-02-21T00:42:35.674Z,17.97
2019-02-21T00:45:04.030Z,14.00
2019-02-21T00:47:32.103Z,17.33
2019-02-21T00:50:00.339Z,18.33
2019-02-21T00:52:28.546Z,16.87
2019-02-21T00:54:57.143Z,15.93
2019-02-21T00:57:25.216Z,15.37
2019-02-21T00:59:53.307Z,14.20
2019-02-21T01:02:21.573Z,15.33
2019-02-21T01:04:49.674Z,13.80
2019-02-21T01:07:17.765Z,13.37
2019-02-21T01:09:45.834Z,14.87
2019-02-21T01:12:13.939Z,15.77
2019-02-21T01:14:42.016Z,12.00
2019-02-21T01:17:10.123Z,15.90
2019-02-21T01:19:38.204Z,16.60
2019-02-21T01:22:06.358Z,16.13
2019-02-21T01:24:34.447Z,14.23
2019-02-21T01:27:02.606Z,17.00
2019-02-21T01:29:30.689Z,15.30
2019-02-21T01:31:58.787Z,16.77
2019-02-21T01:34:26.883Z,16.93
2019-02-21T01:36:54.982Z,16.40
2019-02-21T01:39:23.059Z,15.50
2019-02-21T01:41:51.165Z,18.77
2019-02-21T01:44:19.274Z,14.97
2019-02-21T01:46:47.372Z,15.87
2019-02-21T01:49:15.476Z,14.77
2019-02-21T01:51:43.596Z,13.63
2019-02-21T01:54:11.713Z,16.50
2019-02-21T01:56:39.834Z,17.50
2019-02-21T01:59:07.936Z,16.97
2019-02-21T02:01:36.057Z,13.77
2019-02-21T02:04:04.148Z,15.67
2019-02-21T02:06:32.251Z,15.37
2019-02-21T02:09:00.371Z,16.90
2019-02-21T02:11:28.499Z,17.43
2019-02-21T02:13:56.601Z,16.20
2019-02-21T02:16:24.711Z,16.70
2019-02-21T02:18:52.815Z,14.70
2019-02-21T02:21:20.971Z,17.30
2019-02-21T02:23:49.073Z,19.53
2019-02-21T02:26:17.143Z,15.53
2019-02-21T02:28:45.258Z,15.63
2019-02-21T02:31:21.943Z,14.33
2019-02-21T02:33:43.216Z,15.70
2019-02-21T02:36:11.294Z,17.47
2019-02-21T02:38:39.384Z,14.13
2019-02-21T02:41:07.488Z,18.20
2019-02-21T02:43:35.613Z,15.33
2019-02-21T02:46:03.782Z,20.27
2019-02-21T02:48:31.845Z,18.57
2019-02-21T02:51:00.003Z,16.57
2019-02-21T02:53:33.972Z,16.77
2019-02-21T02:56:02.086Z,14.37
2019-02-21T02:58:30.167Z,16.57
2019-02-21T03:00:58.273Z,16.63
2019-02-21T03:03:26.361Z,14.70
2019-02-21T03:05:54.486Z,18.30
2019-02-21T03:08:22.565Z,17.37
2019-02-21T03:10:50.653Z,16.13
2019-02-21T03:13:18.732Z,18.07
2019-02-21T03:15:46.845Z,16.53
2019-02-21T03:18:14.911Z,16.40
2019-02-21T03:20:43.013Z,17.53
2019-02-21T03:23:11.096Z,19.43
2019-02-21T03:25:39.191Z,17.10
2019-02-21T03:28:07.340Z,17.27
2019-02-21T03:30:35.507Z,15.63
2019-02-21T03:33:03.665Z,19.30
2019-02-21T03:35:31.803Z,17.37
2019-02-21T03:37:59.893Z,16.37
2019-02-21T03:40:27.994Z,16.50
2019-02-21T03:42:56.131Z,14.93
2019-02-21T03:45:24.247Z,17.50
2019-02-21T03:47:52.346Z,16.93
2019-02-21T03:50:20.436Z,14.87
2019-02-21T03:52:48.589Z,15.83
2019-02-21T03:55:16.709Z,14.90
2019-02-21T03:57:44.810Z,16.23
2019-02-21T04:00:12.967Z,18.47
2019-02-21T04:02:41.051Z,16.77
2019-02-21T04:05:09.200Z,15.53
2019-02-21T04:07:37.365Z,16.13
2019-02-21T04:10:06.922Z,16.67
2019-02-21T04:12:35.027Z,17.57
2019-02-21T04:15:04.147Z,15.50
2019-02-21T04:17:32.241Z,15.67
2019-02-21T04:20:00.318Z,15.30
2019-02-21T04:22:28.422Z,16.93
2019-02-21T04:24:56.510Z,17.00
2019-02-21T04:27:24.616Z,14.47
2019-02-21T04:29:52.713Z,12.77
2019-02-21T04:32:20.793Z,15.03
2019-02-21T04:34:48.912Z,18.77
2019-02-21T04:37:17.056Z,14.73
2019-02-21T04:39:45.153Z,18.93
2019-02-21T04:42:13.258Z,15.70
2019-02-21T04:44:41.354Z,17.90
2019-02-21T04:47:09.469Z,15.57
2019-02-21T04:49:37.566Z,20.63
2019-02-21T04:52:05.654Z,18.70
2019-02-21T04:54:33.849Z,15.97
2019-02-21T04:57:01.969Z,18.93
2019-02-21T04:59:30.133Z,16.20
2019-02-21T05:01:58.222Z,15.43
2019-02-21T05:04:26.328Z,16.00
2019-02-21T05:06:54.407Z,16.63
2019-02-21T05:09:22.516Z,16.00
2019-02-21T05:11:50.595Z,16.00
2019-02-21T05:14:18.692Z,17.37
2019-02-21T05:16:46.790Z,23.07
2019-02-21T05:19:14.908Z,19.53
2019-02-21T05:21:43.038Z,29.07
2019-02-21T05:24:11.188Z,23.37
2019-02-21T05:26:43.836Z,25.00
2019-02-21T05:29:13.521Z,20.10
2019-02-21T05:32:01.357Z,22.90
2019-02-21T05:34:31.160Z,23.70
2019-02-21T05:37:17.503Z,22.73
2019-02-21T05:40:02.732Z,22.87
2019-02-21T05:42:42.870Z,25.77
2019-02-21T05:45:15.634Z,21.07
2019-02-21T05:47:48.317Z,21.17
2019-02-21T05:50:24.211Z,24.17
2019-02-21T05:53:10.714Z,22.10
2019-02-21T05:55:43.211Z,22.43
2019-02-21T05:58:13.002Z,23.33
2019-02-21T06:00:45.739Z,29.03
2019-02-21T06:03:27.430Z,22.13
2019-02-21T06:06:02.660Z,23.50
2019-02-21T06:08:38.232Z,27.13
2019-02-21T06:11:13.908Z,25.80
2019-02-21T06:13:46.634Z,24.47
2019-02-21T06:16:16.377Z,24.80
2019-02-21T06:18:52.012Z,20.33
2019-02-21T06:21:24.800Z,21.10
2019-02-21T06:23:54.530Z,21.87
2019-02-21T06:26:26.957Z,20.23
2019-02-21T06:29:13.276Z,22.37
2019-02-21T06:31:41.357Z,21.03
2019-02-21T06:34:09.432Z,20.60
2019-02-21T06:36:37.538Z,20.33
2019-02-21T06:39:07.213Z,20.33
2019-02-21T06:41:35.367Z,19.90
2019-02-21T06:44:03.463Z,20.90
2019-02-21T06:46:31.565Z,23.20
2019-02-21T06:48:59.673Z,23.73
2019-02-21T06:51:27.756Z,23.73
2019-02-21T06:53:55.828Z,20.57
2019-02-21T06:56:23.956Z,26.37
2019-02-21T06:58:52.068Z,27.43
2019-02-21T07:01:28.872Z,22.60
2019-02-21T07:03:49.977Z,21.67
2019-02-21T07:06:19.147Z,23.97
2019-02-21T07:08:47.435Z,20.90
2019-02-21T07:11:15.520Z,22.23
2019-02-21T07:13:43.618Z,42.07
2019-02-21T07:16:13.088Z,28.83
2019-02-21T07:18:41.477Z,21.37
2019-02-21T07:21:09.559Z,24.40
2019-02-21T07:23:43.415Z,22.30
2019-02-21T07:26:07.520Z,22.70
2019-02-21T07:28:35.599Z,21.63
2019-02-21T07:31:03.709Z,31.73
2019-02-21T07:33:31.836Z,32.30
2019-02-21T07:35:59.900Z,29.10
2019-02-21T07:38:27.997Z,28.90
2019-02-21T07:40:56.095Z,25.57
2019-02-21T07:43:24.939Z,25.73
2019-02-21T07:45:53.189Z,25.43
2019-02-21T07:48:21.283Z,24.20
2019-02-21T07:50:49.364Z,22.90
2019-02-21T07:53:17.454Z,23.43
2019-02-21T07:55:45.547Z,24.43
2019-02-21T07:58:13.655Z,25.37
2019-02-21T08:00:41.753Z,27.33
2019-02-21T08:03:09.829Z,24.73
2019-02-21T08:05:37.926Z,29.07
2019-02-21T08:08:06.034Z,28.33
2019-02-21T08:10:34.258Z,24.73
2019-02-21T08:13:02.387Z,25.00
2019-02-21T08:15:30.503Z,20.37
2019-02-21T08:17:58.576Z,25.37
2019-02-21T08:20:34.123Z,27.30
2019-02-21T08:22:56.639Z,26.77
2019-02-21T08:25:24.900Z,28.00
2019-02-21T08:27:53.026Z,29.40
2019-02-21T08:30:21.240Z,28.80
2019-02-21T08:32:59.831Z,28.40
2019-02-21T08:35:28.321Z,33.77
2019-02-21T08:37:56.450Z,28.50
2019-02-21T08:40:25.153Z,27.80
2019-02-21T08:42:53.371Z,27.53
2019-02-21T08:45:21.538Z,29.57
2019-02-21T08:47:49.669Z,30.57
2019-02-21T08:50:17.818Z,29.23
2019-02-21T08:52:45.921Z,25.77
2019-02-21T08:55:14.044Z,32.63
2019-02-21T08:57:42.181Z,27.57
2019-02-21T09:00:11.914Z,28.80
2019-02-21T09:02:42.771Z,28.50
2019-02-21T09:05:19.185Z,30.90
2019-02-21T09:07:47.285Z,32.33
2019-02-21T09:10:15.387Z,30.53
2019-02-21T09:12:47.810Z,32.50
2019-02-21T09:15:14.631Z,29.90
2019-02-21T09:17:42.737Z,29.17
2019-02-21T09:20:11.379Z,32.47
2019-02-21T09:22:39.499Z,35.13
2019-02-21T09:25:11.398Z,32.67
2019-02-21T09:27:39.482Z,32.70
2019-02-21T09:30:09.099Z,31.23
2019-02-21T09:32:37.229Z,33.67
2019-02-21T09:35:05.700Z,31.30
2019-02-21T09:37:33.875Z,35.53
2019-02-21T09:40:02.028Z,33.97
2019-02-21T09:42:30.135Z,31.27
2019-02-21T09:44:58.256Z,30.63
2019-02-21T09:47:26.344Z,32.67
2019-02-21T09:49:56.456Z,31.67
2019-02-21T09:52:24.251Z,34.27
2019-02-21T09:54:52.336Z,31.67
2019-02-21T09:57:20.428Z,33.70
2019-02-21T09:59:48.549Z,31.47
2019-02-21T10:02:16.664Z,31.73
2019-02-21T10:04:44.728Z,30.93
2019-02-21T10:07:12.804Z,28.77
2019-02-21T10:09:40.900Z,27.63
2019-02-21T10:12:08.982Z,30.90
2019-02-21T10:14:37.185Z,33.37
2019-02-21T10:17:05.315Z,30.30
2019-02-21T10:19:35.630Z,30.87
2019-02-21T10:22:04.462Z,31.80
2019-02-21T10:24:32.724Z,32.57
2019-02-21T10:27:00.820Z,28.17
2019-02-21T10:29:29.832Z,30.20
2019-02-21T10:31:58.184Z,34.63
2019-02-21T10:34:26.277Z,33.60
2019-02-21T10:36:54.359Z,32.23
2019-02-21T10:39:22.457Z,29.13
2019-02-21T10:41:50.554Z,31.00
2019-02-21T10:44:18.644Z,28.17
2019-02-21T10:46:46.726Z,27.70
2019-02-21T10:49:16.265Z,28.80
2019-02-21T10:51:44.648Z,27.60
2019-02-21T10:54:12.964Z,27.77
2019-02-21T10:56:41.338Z,28.47
2019-02-21T10:59:12.852Z,27.33
2019-02-21T11:01:41.009Z,25.87
2019-02-21T11:04:09.086Z,26.10
2019-02-21T11:06:37.184Z,28.83
2019-02-21T11:09:06.972Z,26.10
2019-02-21T11:11:35.293Z,25.60
2019-02-21T11:14:03.505Z,30.33
2019-02-21T11:16:31.700Z,23.73
2019-02-21T11:18:59.876Z,26.40
2019-02-21T11:21:29.684Z,28.90
2019-02-21T11:23:57.777Z,26.83
2019-02-21T11:26:26.085Z,29.93
2019-02-21T11:28:54.314Z,23.20
2019-02-21T11:31:22.528Z,25.57
2019-02-21T11:33:50.749Z,26.07
2019-02-21T11:36:18.980Z,27.90
2019-02-21T11:38:47.109Z,27.53
2019-02-21T11:41:15.295Z,24.20
2019-02-21T11:43:43.367Z,25.10
2019-02-21T11:46:11.454Z,24.50
2019-02-21T11:48:39.584Z,26.90
2019-02-21T11:51:07.721Z,20.17
2019-02-21T11:53:38.033Z,21.57
2019-02-21T11:56:05.761Z,23.53
2019-02-21T11:58:33.841Z,22.07
2019-02-21T12:01:02.031Z,22.23
2019-02-21T12:03:30.112Z,22.57
2019-02-21T12:05:58.299Z,23.77
2019-02-21T12:08:26.428Z,24.87
2019-02-21T12:10:54.507Z,22.73
2019-02-21T12:13:22.615Z,25.53
2019-02-21T12:15:50.691Z,31.30
2019-02-21T12:18:18.812Z,19.17
2019-02-21T12:20:46.943Z,23.13
2019-02-21T12:23:17.657Z,20.13
2019-02-21T12:25:44.938Z,19.63
2019-02-21T12:28:13.030Z,20.10
2019-02-21T12:30:41.123Z,17.60
2019-02-21T12:33:09.256Z,18.57
2019-02-21T12:35:37.508Z,16.27
2019-02-21T12:38:05.649Z,19.80
2019-02-21T12:40:33.778Z,20.07
2019-02-21T12:43:01.862Z,19.23
2019-02-21T12:45:30.210Z,18.63
2019-02-21T12:47:58.655Z,20.07
2019-02-21T12:50:27.104Z,20.33
2019-02-21T12:52:55.520Z,17.27
2019-02-21T12:55:29.265Z,18.20
2019-02-21T12:57:54.225Z,16.57
2019-02-21T13:00:22.918Z,17.90
2019-02-21T13:02:51.324Z,21.70
2019-02-21T13:05:19.752Z,19.00
2019-02-21T13:07:48.199Z,21.83
2019-02-21T13:10:18.943Z,21.63
2019-02-21T13:12:47.353Z,19.60
2019-02-21T13:15:16.202Z,21.27
2019-02-21T13:17:44.609Z,19.47
2019-02-21T13:20:16.329Z,19.97
2019-02-21T13:22:44.808Z,16.90
2019-02-21T13:25:18.371Z,17.53
2019-02-21T13:27:46.929Z,17.93
2019-02-21T13:30:16.741Z,18.77
2019-02-21T13:32:45.343Z,16.63
2019-02-21T13:35:14.021Z,19.90
2019-02-21T13:37:42.536Z,21.30
2019-02-21T13:40:14.036Z,18.83
2019-02-21T13:42:42.473Z,20.73
2019-02-21T13:45:13.161Z,21.03
2019-02-21T13:47:41.655Z,17.87
2019-02-21T13:50:15.880Z,18.53
2019-02-21T13:52:44.292Z,21.60
2019-02-21T13:55:12.860Z,20.33
2019-02-21T13:57:41.328Z,21.87
2019-02-21T14:00:21.141Z,20.70
2019-02-21T14:02:49.633Z,18.37
2019-02-21T14:05:18.085Z,19.47
2019-02-21T14:07:46.577Z,20.97
2019-02-21T14:10:15.358Z,19.90
2019-02-21T14:12:43.756Z,21.20
2019-02-21T14:15:18.500Z,20.93
2019-02-21T14:17:47.060Z,20.47
2019-02-21T14:20:15.476Z,21.00
2019-02-21T14:22:43.889Z,21.67
2019-02-21T14:25:12.672Z,21.23
2019-02-21T14:27:41.179Z,22.17
2019-02-21T14:30:18.004Z,22.27
2019-02-21T14:32:46.432Z,19.90
2019-02-21T14:35:15.507Z,21.53
2019-02-21T14:37:43.963Z,19.67
2019-02-21T14:40:14.647Z,17.90
2019-02-21T14:42:43.077Z,19.23
2019-02-21T14:45:14.310Z,21.57
2019-02-21T14:47:42.756Z,21.77
2019-02-21T14:50:12.306Z,24.03
2019-02-21T14:52:40.798Z,21.80
2019-02-21T14:55:11.561Z,19.70
2019-02-21T14:57:41.230Z,20.00
2019-02-21T15:00:18.865Z,19.53
2019-02-21T15:02:47.308Z,20.43
2019-02-21T15:05:15.785Z,20.80
2019-02-21T15:07:44.220Z,19.80
2019-02-21T15:10:12.645Z,20.10
2019-02-21T15:12:41.079Z,18.73
2019-02-21T15:15:15.249Z,16.03
2019-02-21T15:17:43.701Z,21.60
2019-02-21T15:20:14.257Z,18.33
2019-02-21T15:22:42.682Z,19.53
2019-02-21T15:25:11.113Z,18.20
2019-02-21T15:27:39.568Z,25.20
2019-02-21T15:30:11.039Z,17.53
2019-02-21T15:32:39.476Z,18.27
2019-02-21T15:35:07.969Z,19.53
2019-02-21T15:37:36.400Z,17.17
2019-02-21T15:40:08.806Z,22.70
2019-02-21T15:42:37.490Z,16.80
2019-02-21T15:45:21.921Z,19.73
2019-02-21T15:47:41.758Z,18.93
2019-02-21T15:50:12.610Z,20.83
2019-02-21T15:52:41.417Z,22.33
2019-02-21T15:55:12.968Z,22.80
2019-02-21T15:57:41.669Z,22.33
2019-02-21T16:00:15.349Z,22.03
2019-02-21T16:02:43.791Z,21.57
2019-02-21T16:05:12.214Z,20.27
2019-02-21T16:07:40.628Z,21.23
2019-02-21T16:10:12.139Z,25.60
2019-02-21T16:12:41.072Z,18.83
2019-02-21T16:15:16.168Z,21.77
2019-02-21T16:17:43.957Z,23.43
2019-02-21T16:20:14.517Z,21.70
2019-02-21T16:22:43.684Z,19.77
2019-02-21T16:25:17.400Z,24.37
2019-02-21T16:27:45.832Z,22.83
2019-02-21T16:30:14.988Z,20.63
2019-02-21T16:32:43.450Z,20.53
2019-02-21T16:35:13.817Z,19.60
2019-02-21T16:37:42.321Z,19.67
2019-02-21T16:40:15.408Z,18.47
2019-02-21T16:42:43.948Z,20.27
2019-02-21T16:45:20.784Z,18.53
2019-02-21T16:47:49.204Z,18.10
2019-02-21T16:50:28.822Z,21.70
2019-02-21T16:52:47.778Z,15.73
2019-02-21T16:55:21.017Z,17.73
2019-02-21T16:57:49.497Z,20.30
2019-02-21T17:00:19.166Z,20.73
2019-02-21T17:02:47.644Z,20.37
2019-02-21T17:05:16.454Z,31.00
2019-02-21T17:07:44.848Z,19.70
2019-02-21T17:10:32.618Z,15.30
2019-02-21T17:13:01.039Z,18.17
2019-02-21T17:15:29.568Z,18.33
2019-02-21T17:17:58.055Z,20.80
2019-02-21T17:20:26.526Z,22.87
2019-02-21T17:22:54.944Z,19.93
2019-02-21T17:25:23.373Z,17.60
2019-02-21T17:27:51.826Z,20.23
2019-02-21T17:30:20.787Z,22.67
2019-02-21T17:32:49.326Z,21.23
2019-02-21T17:35:18.028Z,21.37
2019-02-21T17:37:46.729Z,19.23
2019-02-21T17:40:23.337Z,19.77
2019-02-21T17:42:53.689Z,19.33
2019-02-21T17:45:22.734Z,22.63
2019-02-21T17:47:57.208Z,20.80
2019-02-21T17:50:36.064Z,22.87
2019-02-21T17:53:04.544Z,18.90
2019-02-21T17:55:33.019Z,20.43
2019-02-21T17:58:01.440Z,19.27
2019-02-21T18:00:31.578Z,19.70
2019-02-21T18:03:00.012Z,27.30
2019-02-21T18:05:28.485Z,21.63
2019-02-21T18:07:56.958Z,27.80
2019-02-21T18:10:25.421Z,25.03
2019-02-21T18:12:53.905Z,22.90
2019-02-21T18:15:22.315Z,20.10
2019-02-21T18:17:50.789Z,19.13
2019-02-21T18:20:19.231Z,23.33
2019-02-21T18:22:47.655Z,24.67
2019-02-21T18:25:31.347Z,22.37
2019-02-21T18:27:59.844Z,23.00
2019-02-21T18:30:28.298Z,23.53
2019-02-21T18:32:56.726Z,23.60
2019-02-21T18:35:25.157Z,22.20
2019-02-21T18:37:53.560Z,21.57
2019-02-21T18:40:24.018Z,24.40
2019-02-21T18:42:52.464Z,20.40
2019-02-21T18:45:21.084Z,24.87
2019-02-21T18:47:49.511Z,20.03
2019-02-21T18:50:17.937Z,26.27
2019-02-21T18:52:47.242Z,23.50
2019-02-21T18:55:15.727Z,21.03
2019-02-21T18:57:44.156Z,24.33
2019-02-21T19:00:24.127Z,21.23
2019-02-21T19:02:53.295Z,25.30
2019-02-21T19:05:22.142Z,23.23
2019-02-21T19:08:00.397Z,25.83
2019-02-21T19:10:21.884Z,20.70
2019-02-21T19:12:50.701Z,25.93
2019-02-21T19:15:20.666Z,27.20
2019-02-21T19:17:49.253Z,21.43
2019-02-21T19:20:21.374Z,23.17
2019-02-21T19:22:49.882Z,27.53
2019-02-21T19:25:18.401Z,21.13
2019-02-21T19:27:46.930Z,22.03
2019-02-21T19:30:18.429Z,20.53
2019-02-21T19:32:46.934Z,20.13
2019-02-21T19:35:16.179Z,20.90
2019-02-21T19:37:44.601Z,22.73
2019-02-21T19:40:13.229Z,22.67
2019-02-21T19:42:41.813Z,23.83
2019-02-21T19:45:10.415Z,27.03
2019-02-21T19:47:58.161Z,24.83
2019-02-21T19:50:26.921Z,23.27
2019-02-21T19:52:55.323Z,26.23
2019-02-21T19:55:24.001Z,26.13
2019-02-21T19:57:52.417Z,23.57
2019-02-21T20:00:30.402Z,28.03
2019-02-21T20:02:58.874Z,27.43
2019-02-21T20:05:28.861Z,22.77
2019-02-21T20:08:07.868Z,23.50
2019-02-21T20:10:27.442Z,26.33
2019-02-21T20:12:57.592Z,24.27
2019-02-21T20:15:26.024Z,22.60
2019-02-21T20:17:54.498Z,23.90
2019-02-21T20:20:27.432Z,23.43
2019-02-21T20:22:55.915Z,23.77
2019-02-21T20:25:24.339Z,26.03
2019-02-21T20:27:52.740Z,24.80
2019-02-21T20:30:21.248Z,21.77
2019-02-21T20:32:49.711Z,28.23
2019-02-21T20:35:18.209Z,29.00
2019-02-21T20:37:46.673Z,26.87
2019-02-21T20:40:15.256Z,24.67
2019-02-21T20:42:43.767Z,24.60
2019-02-21T20:45:13.472Z,26.37
2019-02-21T20:47:41.969Z,26.03
2019-02-21T20:50:12.776Z,25.40
2019-02-21T20:52:41.408Z,27.47
2019-02-21T20:55:11.174Z,25.27
2019-02-21T20:57:39.699Z,24.27
2019-02-21T21:00:13.761Z,29.63
2019-02-21T21:02:42.357Z,26.77
2019-02-21T21:05:10.860Z,24.53
2019-02-21T21:07:39.279Z,30.97
2019-02-21T21:10:12.292Z,25.53
2019-02-21T21:12:40.705Z,26.70
2019-02-21T21:15:10.662Z,30.97
2019-02-21T21:17:39.085Z,27.67
2019-02-21T21:20:16.569Z,27.87
2019-02-21T21:22:40.520Z,26.57
2019-02-21T21:25:11.866Z,26.67
2019-02-21T21:27:40.346Z,28.63
2019-02-21T21:30:11.510Z,27.17
2019-02-21T21:32:40.063Z,26.50
2019-02-21T21:35:08.613Z,29.63
2019-02-21T21:37:37.065Z,27.77
2019-02-21T21:40:16.784Z,25.63
2019-02-21T21:42:45.211Z,28.43
2019-02-21T21:45:19.651Z,28.17
2019-02-21T21:47:48.098Z,29.07
2019-02-21T21:50:17.943Z,24.53
2019-02-21T21:52:46.502Z,26.40
2019-02-21T21:55:15.377Z,27.60
2019-02-21T21:57:44.055Z,25.43
2019-02-21T22:00:17.935Z,25.33
2019-02-21T22:02:46.083Z,22.50
2019-02-21T22:05:14.543Z,24.30
2019-02-21T22:07:42.993Z,21.57
2019-02-21T22:10:13.153Z,24.57
2019-02-21T22:12:41.693Z,24.03
2019-02-21T22:15:12.891Z,24.10
2019-02-21T22:17:42.211Z,22.83
2019-02-21T22:20:10.836Z,23.50
2019-02-21T22:22:39.359Z,21.83
2019-02-21T22:25:10.254Z,21.70
2019-02-21T22:27:38.736Z,30.17
2019-02-21T22:30:15.937Z,26.20
2019-02-21T22:32:44.625Z,25.57
2019-02-21T22:35:13.279Z,25.93
2019-02-21T22:37:41.717Z,26.00
2019-02-21T22:40:12.477Z,29.50
2019-02-21T22:42:40.911Z,25.67
2019-02-21T22:45:10.313Z,28.47
2019-02-21T22:47:38.912Z,26.30
2019-02-21T22:50:15.523Z,27.50
2019-02-21T22:52:47.079Z,25.33
2019-02-21T22:55:15.607Z,26.03
2019-02-21T22:57:44.091Z,27.67
2019-02-21T23:00:36.706Z,32.13
2019-02-21T23:03:08.287Z,33.83
2019-02-21T23:06:03.640Z,28.50
2019-02-21T23:08:46.954Z,26.33
2019-02-21T23:11:15.482Z,25.73
2019-02-21T23:13:44.260Z,25.77
2019-02-21T23:16:12.693Z,25.27
2019-02-21T23:18:41.300Z,24.17
2019-02-21T23:21:11.412Z,22.00
2019-02-21T23:23:41.643Z,26.00
2019-02-21T23:26:10.935Z,23.23
2019-02-21T23:28:39.533Z,26.77
2019-02-21T23:31:08.076Z,23.43
2019-02-21T23:33:38.126Z,24.53
2019-02-21T23:36:08.176Z,23.83
2019-02-21T23:38:37.035Z,25.70
2019-02-21T23:41:05.509Z,26.00
2019-02-21T23:43:37.140Z,27.33
2019-02-21T23:46:05.784Z,23.27
2019-02-21T23:48:34.227Z,26.07
2019-02-21T23:51:02.632Z,28.30
2019-02-21T23:53:31.076Z,26.40
2019-02-21T23:55:59.573Z,31.77
2019-02-21T23:58:28.640Z,27.40
